»·PEaware :: N3486 KSNA-KSBA

N3486 :: KSNA-KSBA

FLIGHT INFORMATION

Flight Status: Arrived
Operator: Privately registered:
United States
More flights under this callsign
Pilot: John C. (9438)
Aircraft: PILATUS PC-12 EAGLE
(PC12)
More flights by this aircraft type
Origin: KSNA John Wayne-Orange Co
United States
Destination: KSBA Santa Barbara Mun
United States
More flights between these airports :: More routes between these airports
Route: SLI SLI341R ELMOO VNY095R VNY V186 FIM V186 DEANO V27 KWANG
File this flight plan on PilotEdge
Remarks: TEC route CSTP28
Altitude:
(Current/Filed)
8,000ft
Speed:
(Current/Filed)
200kts
Departed: 05-Dec-18 01:39 PM
Arrived: 05-Dec-18 02:34 PM
Distance/Time
Traveled:
108nm/0:54
Distance/Time
To Go:
Arrived

Flight Plot

Page will automatically refresh every two minutes.

Flight plan parsing failed; only flown route is shown


Map Options




Map Legend


Flown Route
Filed Route
Departure Airport
Arrival Airport
Navaid (VOR, NDB)
Fix

Horizontal Profiles

Position Reports

Time Latitude Longitude Heading Altitude Ground
Speed
05-Dec-18 13:07 33.671732 -117.873977 206 60ft 0kts
05-Dec-18 13:08 33.671732 -117.873977 206 60ft 0kts
05-Dec-18 13:09 33.671732 -117.873977 206 60ft 0kts
05-Dec-18 13:10 33.671732 -117.873977 206 60ft 0kts
05-Dec-18 13:11 33.671732 -117.873977 206 60ft 0kts
05-Dec-18 13:12 33.671732 -117.873977 206 60ft 0kts
05-Dec-18 13:13 33.671732 -117.873977 206 60ft 0kts
05-Dec-18 13:14 33.671732 -117.873977 206 60ft 0kts
05-Dec-18 13:15 33.671732 -117.873977 206 60ft 0kts
05-Dec-18 13:16 33.671732 -117.873977 206 60ft 0kts
05-Dec-18 13:17 33.671732 -117.873977 206 60ft 0kts
05-Dec-18 13:18 33.671732 -117.873977 206 60ft 0kts
05-Dec-18 13:19 33.671732 -117.873977 206 60ft 0kts
05-Dec-18 13:20 33.671732 -117.873977 206 60ft 0kts
05-Dec-18 13:21 33.671732 -117.873977 206 60ft 0kts
05-Dec-18 13:22 33.671732 -117.873977 206 60ft 0kts
05-Dec-18 13:23 33.671732 -117.873977 206 60ft 0kts
05-Dec-18 13:24 33.671732 -117.873977 206 60ft 0kts
05-Dec-18 13:25 33.671732 -117.873977 206 60ft 0kts
05-Dec-18 13:26 33.671469 -117.873761 116 60ft 0kts
05-Dec-18 13:27 33.671469 -117.873761 116 60ft 0kts
05-Dec-18 13:28 33.671469 -117.873761 116 60ft 0kts
05-Dec-18 13:29 33.671469 -117.873761 116 60ft 0kts
05-Dec-18 13:30 33.671469 -117.873761 116 60ft 0kts
05-Dec-18 13:31 33.671469 -117.873761 116 60ft 0kts
05-Dec-18 13:32 33.671469 -117.873761 116 60ft 0kts
05-Dec-18 13:33 33.671459 -117.873738 116 60ft 0kts
05-Dec-18 13:34 33.668900 -117.874636 206 60ft 10kts
05-Dec-18 13:35 33.668264 -117.874660 143 60ft 0kts
05-Dec-18 13:36 33.668264 -117.874660 143 60ft 0kts
05-Dec-18 13:37 33.668264 -117.874660 143 60ft 0kts
05-Dec-18 13:38 33.674336 -117.869728 24 90ft 95kts
05-Dec-18 13:39 33.700105 -117.852541 31 1424ft 129kts
05-Dec-18 13:40 33.730959 -117.825004 70 2971ft 148kts
05-Dec-18 13:41 33.700009 -117.801249 191 4603ft 163kts
05-Dec-18 13:42 33.647963 -117.812599 191 4986ft 221kts
05-Dec-18 13:43 33.621181 -117.864129 293 5781ft 194kts
05-Dec-18 13:44 33.649678 -117.917405 318 5978ft 212kts
05-Dec-18 13:45 33.699537 -117.966847 320 5978ft 243kts
05-Dec-18 13:46 33.751292 -118.021045 319 5976ft 249kts
05-Dec-18 13:47 33.804871 -118.056774 356 5975ft 246kts
05-Dec-18 13:48 33.857913 -118.061166 359 6004ft 246kts
05-Dec-18 13:49 33.903872 -118.064826 358 6028ft 248kts
05-Dec-18 13:50 33.983029 -118.071453 358 6030ft 251kts
05-Dec-18 13:51 34.072010 -118.080381 346 6029ft 254kts
05-Dec-18 13:52 34.117939 -118.144007 286 6026ft 249kts
05-Dec-18 13:53 34.141707 -118.222198 286 6026ft 246kts
05-Dec-18 13:54 34.165294 -118.299745 286 6026ft 243kts
05-Dec-18 13:55 34.188523 -118.376208 286 6025ft 243kts
05-Dec-18 13:56 34.210751 -118.449559 286 6023ft 245kts
05-Dec-18 13:57 34.234485 -118.525408 289 6020ft 247kts
05-Dec-18 13:58 34.261262 -118.602006 289 6017ft 248kts
05-Dec-18 13:59 34.287681 -118.678822 289 6013ft 250kts
05-Dec-18 14:00 34.314373 -118.756944 289 6010ft 252kts
05-Dec-18 14:01 34.340397 -118.833316 290 6008ft 254kts
05-Dec-18 14:02 34.354883 -118.909654 262 6026ft 247kts
05-Dec-18 14:03 34.349851 -118.980118 261 6027ft 246kts
05-Dec-18 14:04 34.345388 -119.038432 261 6027ft 244kts
05-Dec-18 14:05 34.340922 -119.096750 261 6027ft 242kts
05-Dec-18 14:06 34.335290 -119.170132 261 6028ft 241kts
05-Dec-18 14:07 34.328916 -119.254515 262 6026ft 239kts
05-Dec-18 14:08 34.322527 -119.339075 261 6026ft 232kts
05-Dec-18 14:09 34.316002 -119.423835 261 6022ft 231kts
05-Dec-18 14:10 34.310208 -119.502404 266 6015ft 231kts
05-Dec-18 14:11 34.330307 -119.573931 292 6011ft 234kts
05-Dec-18 14:12 34.355944 -119.645177 292 6005ft 233kts
05-Dec-18 14:13 34.384864 -119.736257 264 6000ft 227kts
05-Dec-18 14:14 34.379319 -119.810695 261 5999ft 214kts
05-Dec-18 14:15 34.374046 -119.879205 261 5082ft 201kts
05-Dec-18 14:16 34.368275 -119.946618 261 4047ft 197kts
05-Dec-18 14:17 34.362604 -120.010610 261 3998ft 182kts
05-Dec-18 14:18 34.357541 -120.071553 261 3988ft 182kts
05-Dec-18 14:19 34.352801 -120.133299 261 3977ft 184kts
05-Dec-18 14:20 34.348431 -120.195723 261 3965ft 185kts
05-Dec-18 14:21 34.366553 -120.244871 8 3950ft 182kts
05-Dec-18 14:22 34.406738 -120.212888 42 3959ft 173kts
05-Dec-18 14:23 34.420707 -120.163722 91 3966ft 161kts
05-Dec-18 14:24 34.421792 -120.113864 91 3969ft 112kts
05-Dec-18 14:25 34.422453 -120.080313 91 3659ft 99kts
05-Dec-18 14:26 34.423199 -120.046647 90 3159ft 100kts
05-Dec-18 14:27 34.423995 -120.012594 89 2625ft 100kts
05-Dec-18 14:28 34.424680 -119.980477 89 2090ft 90kts
05-Dec-18 14:29 34.425344 -119.950400 89 1615ft 89kts
05-Dec-18 14:30 34.426031 -119.920555 91 1115ft 86kts
05-Dec-18 14:31 34.426721 -119.891693 85 671ft 87kts
05-Dec-18 14:32 34.427404 -119.863509 87 222ft 80kts
05-Dec-18 14:33 34.427674 -119.847820 86 17ft 11kts
05-Dec-18 14:34 34.428342 -119.846332 25 17ft 0kts
05-Dec-18 14:35 34.428802 -119.845920 86 17ft 5kts
05-Dec-18 14:36 34.429243 -119.845004 39 17ft 0kts
05-Dec-18 14:37 34.429243 -119.845004 39 17ft 0kts
05-Dec-18 14:38 34.429243 -119.845004 39 17ft 0kts

Navigation Log

Ident Type
Flight plan parsing failed, navigation log unavailable